Time;durP1;ratioP1;P1;durP2;ratioP2;P2;SDS_P1;SDS_P2;PMS_P1;PMS_P2;Temp;Humidity;BMP_temperature;BMP_pressure;BME280_temperature;BME280_humidity;BME280_pressure;Samples;Min_cycle;Max_cycle;Signal;HPM_P1;HPM_P2
2021/05/21 00:03:57;;;;;;;;;;;;;;;;;;7330184;40;1121;-16
2021/05/21 00:09:18;;;;;;;;;;;;;;;;;;7322354;40;975;-16
2021/05/21 00:14:38;;;;;;;;;;;;;;;;;;7333383;40;1202;-16
2021/05/21 00:19:59;;;;;;;;;;;;;;;;;;7333028;40;1935;-16
2021/05/21 00:25:20;;;;;;;;;;;;;;;;;;7333051;40;1456;-16
2021/05/21 00:30:41;;;;;;;;;;;;;;;;;;7332970;40;1007;-16
2021/05/21 00:36:02;;;;;;;;;;;;;;;;;;7332891;40;1941;-16
2021/05/21 00:41:25;;;;;;;;;;;;;;;;;;7332488;40;1492;-16
2021/05/21 00:46:45;;;;;;;;;;;;;;;;;;7332889;40;1055;-16
2021/05/21 00:52:07;;;;;;;;;;;;;;;;;;7332841;40;968;-16
2021/05/21 00:57:27;;;;;;;;;;;;;;;;;;7332687;40;1882;-16
2021/05/21 01:02:48;;;;;;;;;;;;;;;;;;7332757;40;978;-16
2021/05/21 01:08:09;;;;;;;;;;;;;;;;;;7330862;40;1358;-16
2021/05/21 01:13:32;;;;;;;;;;;;;;;;;;7332751;40;959;-16
2021/05/21 01:19:07;;;;;;;;;;;;;;;;;;7330897;40;1933;-16
2021/05/21 01:24:28;;;;;;;;;;;;;;;;;;7332138;40;1084;-16
2021/05/21 01:29:49;;;;;;;;;;;;;;;;;;7332656;40;1086;-16
2021/05/21 01:35:10;;;;;;;;;;;;;;;;;;7330589;40;1082;-16
2021/05/21 01:40:31;;;;;;;;;;;;;;;;;;7332110;40;1876;-16
2021/05/21 01:45:52;;;;;;;;;;;;;;;;;;7332412;40;942;-16
2021/05/21 01:51:13;;;;;;;;;;;;;;;;;;7331702;40;1330;-16
2021/05/21 01:56:33;;;;;;;;;;;;;;;;;;7331957;40;1931;-16
2021/05/21 02:02:09;;;;;;;;;;;;;;;;;;7330909;40;1260;-16
2021/05/21 02:07:30;;;;;;;;;;;;;;;;;;7332043;40;995;-16
2021/05/21 02:12:51;;;;;;;;;;;;;;;;;;7330994;40;1523;-16
2021/05/21 02:18:12;;;;;;;;;;;;;;;;;;7324132;40;1920;-16
2021/05/21 02:23:33;;;;;;;;;;;;;;;;;;7331990;40;1075;-16
2021/05/21 02:28:54;;;;;;;;;;;;;;;;;;7332120;40;972;-15
2021/05/21 02:34:15;;;;;;;;;;;;;;;;;;7331603;40;968;-16
2021/05/21 02:39:35;;;;;;;;;;;;;;;;;;7331616;40;1933;-16
2021/05/21 02:44:56;;;;;;;;;;;;;;;;;;7331551;40;1203;-16
2021/05/21 02:50:18;;;;;;;;;;;;;;;;;;7329630;40;1529;-16
2021/05/21 02:55:38;;;;;;;;;;;;;;;;;;7331278;40;1295;-16
2021/05/21 03:00:59;;;;;;;;;;;;;;;;;;7331162;40;1882;-16
2021/05/21 03:06:20;;;;;;;;;;;;;;;;;;7331269;40;1236;-16
2021/05/21 03:11:54;;;;;;;;;;;;;;;;;;7329719;40;2112;-15
2021/05/21 03:17:16;;;;;;;;;;;;;;;;;;7329558;40;1949;-16
2021/05/21 03:22:50;;;;;;;;;;;;;;;;;;7330938;40;1191;-16
2021/05/21 03:28:11;;;;;;;;;;;;;;;;;;7330428;40;1333;-16
2021/05/21 03:33:32;;;;;;;;;;;;;;;;;;7330683;40;1021;-16
2021/05/21 03:38:53;;;;;;;;;;;;;;;;;;7328699;40;1932;-16
2021/05/21 03:44:14;;;;;;;;;;;;;;;;;;7330963;40;1017;-16
2021/05/21 03:49:49;;;;;;;;;;;;;;;;;;7331946;40;1014;-16
2021/05/21 03:55:10;;;;;;;;;;;;;;;;;;7333485;40;890;-16
2021/05/21 04:00:31;;;;;;;;;;;;;;;;;;7333744;40;1886;-16
2021/05/21 04:05:52;;;;;;;;;;;;;;;;;;7333747;40;989;-16
2021/05/21 04:11:13;;;;;;;;;;;;;;;;;;7333401;40;995;-16
2021/05/21 04:16:34;;;;;;;;;;;;;;;;;;7332949;40;1546;-16
2021/05/21 04:21:55;;;;;;;;;;;;;;;;;;7333121;40;1395;-16
2021/05/21 04:27:15;;;;;;;;;;;;;;;;;;7333279;40;1014;-16
2021/05/21 04:32:36;;;;;;;;;;;;;;;;;;7333154;40;973;-16
2021/05/21 04:37:57;;;;;;;;;;;;;;;;;;7332943;40;1874;-15
2021/05/21 04:43:22;;;;;;;;;;;;;;;;;;7333116;40;939;-16
2021/05/21 04:48:43;;;;;;;;;;;;;;;;;;7331309;40;1211;-15
2021/05/21 04:54:04;;;;;;;;;;;;;;;;;;7333132;40;2251;-16
2021/05/21 04:59:25;;;;;;;;;;;;;;;;;;7352896;40;1887;-16
2021/05/21 05:04:46;;;;;;;;;;;;;;;;;;7353114;40;1054;-16
2021/05/21 05:10:06;;;;;;;;;;;;;;;;;;7353415;40;1105;-16
2021/05/21 05:15:28;;;;;;;;;;;;;;;;;;7353115;40;1078;-16
2021/05/21 05:20:48;;;;;;;;;;;;;;;;;;7352592;40;1874;-16
2021/05/21 05:26:12;;;;;;;;;;;;;;;;;;7352982;40;1312;-16
2021/05/21 05:31:33;;;;;;;;;;;;;;;;;;7351583;40;1425;-16
2021/05/21 05:36:56;;;;;;;;;;;;;;;;;;7352646;40;972;-16
2021/05/21 05:42:17;;;;;;;;;;;;;;;;;;7352755;40;1015;-16
2021/05/21 05:47:38;;;;;;;;;;;;;;;;;;7344290;40;1409;-16
2021/05/21 05:53:00;;;;;;;;;;;;;;;;;;7341545;40;951;-16
2021/05/21 05:58:22;;;;;;;;;;;;;;;;;;7104350;40;10000149;-16
2021/05/21 06:03:56;;;;;;;;;;;;;;;;;;7349590;40;987;-16
2021/05/21 06:09:31;;;;;;;;;;;;;;;;;;7348695;40;1215;-16
2021/05/21 06:14:51;;;;;;;;;;;;;;;;;;7349598;40;1008;-16
2021/05/21 06:20:12;;;;;;;;;;;;;;;;;;7348831;40;1888;-16
2021/05/21 06:31:10;;;;;;;;;;;;;;;;;;7349831;40;1026;-16
2021/05/21 06:36:30;;;;;;;;;;;;;;;;;;7349537;40;969;-16
2021/05/21 06:41:51;;;;;;;;;;;;;;;;;;7349154;40;1882;-16
2021/05/21 06:47:13;;;;;;;;;;;;;;;;;;7349302;40;954;-16
2021/05/21 06:52:34;;;;;;;;;;;;;;;;;;7349392;40;1033;-16
2021/05/21 06:57:54;;;;;;;;;;;;;;;;;;7349167;40;1928;-16
2021/05/21 07:03:16;;;;;;;;;;;;;;;;;;7350139;40;965;-16
2021/05/21 07:08:38;;;;;;;;;;;;;;;;;;7351928;40;879;-17
2021/05/21 07:13:59;;;;;;;;;;;;;;;;;;7351427;40;985;-16
2021/05/21 07:19:34;;;;;;;;;;;;;;;;;;7350491;40;1883;-16
2021/05/21 07:24:57;;;;;;;;;;;;;;;;;;7336129;40;1054;-16
2021/05/21 07:30:18;;;;;;;;;;;;;;;;;;7351507;40;933;-16
2021/05/21 07:35:39;;;;;;;;;;;;;;;;;;7351123;40;989;-16
2021/05/21 07:41:00;;;;;;;;;;;;;;;;;;7346754;40;2111;-16
2021/05/21 07:46:21;;;;;;;;;;;;;;;;;;7344937;40;1023;-16
2021/05/21 07:51:42;;;;;;;;;;;;;;;;;;7345506;40;1002;-16
2021/05/21 07:57:02;;;;;;;;;;;;;;;;;;7344631;40;1559;-16
2021/05/21 08:02:23;;;;;;;;;;;;;;;;;;7344538;40;1550;-16
2021/05/21 08:07:44;;;;;;;;;;;;;;;;;;7329349;40;1018;-17
2021/05/21 08:13:05;;;;;;;;;;;;;;;;;;7344953;40;1033;-16
2021/05/21 08:18:40;;;;;;;;;;;;;;;;;;7337385;40;1935;-16
2021/05/21 08:24:01;;;;;;;;;;;;;;;;;;7344717;40;1025;-16
2021/05/21 08:29:23;;;;;;;;;;;;;;;;;;7344347;40;1207;-16
2021/05/21 08:34:44;;;;;;;;;;;;;;;;;;7347352;40;897;-16
2021/05/21 08:40:05;;;;;;;;;;;;;;;;;;7347358;40;1961;-16
2021/05/21 08:45:28;;;;;;;;;;;;;;;;;;7338971;40;1201;-16
2021/05/21 08:50:50;;;;;;;;;;;;;;;;;;7346220;40;1587;-16
2021/05/21 08:56:12;;;;;;;;;;;;;;;;;;7347315;40;878;-16
2021/05/21 09:01:33;;;;;;;;;;;;;;;;;;7346963;40;1936;-16
2021/05/21 09:07:02;;;;;;;;;;;;;;;;;;7347229;40;1553;-16
2021/05/21 09:34:30;;;;;;;;;;;;;;;;;;7439162;39;1402;-14
2021/05/21 09:40:08;;;;;;;;;;;;;;;;;;7438893;39;1882;-14
2021/05/21 09:45:36;;;;;;;;;;;;;;;;;;7434239;39;1058;-14
2021/05/21 09:50:59;;;;;;;;;;;;;;;;;;7429993;40;902;-15
2021/05/21 09:56:21;;;;;;;;;;;;;;;;;;7429487;40;1328;-14
2021/05/21 10:01:42;;;;;;;;;;;;;;;;;;7421103;40;1945;-16
2021/05/21 10:07:03;;;;;;;;;;;;;;;;;;7430201;40;969;-15
2021/05/21 10:12:25;;;;;;;;;;;;;;;;;;7429961;40;1026;-15
2021/05/21 10:17:48;;;;;;;;;;;;;;;;;;7429810;40;1083;-14
2021/05/21 10:23:09;;;;;;;;;;;;;;;;;;7429691;40;1945;-14
2021/05/21 10:28:30;;;;;;;;;;;;;;;;;;7429672;40;1016;-14
2021/05/21 10:34:09;;;;;;;;;;;;;;;;;;7419225;40;1191;-14
2021/05/21 10:39:58;;;;;;;;;;;;;;;;;;7415330;40;1973;-15
2021/05/21 10:45:51;;;;;;;;;;;;;;;;;;7415743;40;1093;-14
2021/05/21 10:51:12;;;;;;;;;;;;;;;;;;7415569;40;1026;-15
2021/05/21 10:56:43;;;;;;;;;;;;;;;;;;7407602;40;1190;-14
2021/05/21 11:02:04;;;;;;;;;;;;;;;;;;7395078;40;1948;-14
2021/05/21 11:07:31;;;;;;;;;;;;;;;;;;7399932;40;995;-14
2021/05/21 11:13:00;;;;;;;;;;;;;;;;;;7398948;40;1065;-14
2021/05/21 11:18:21;;;;;;;;;;;;;;;;;;7415625;40;991;-14
2021/05/21 11:23:45;;;;;;;;;;;;;;;;;;7415088;40;1933;-14
2021/05/21 11:29:08;;;;;;;;;;;;;;;;;;7415334;40;998;-14
2021/05/21 11:34:28;;;;;;;;;;;;;;;;;;7414934;40;934;-15
2021/05/21 11:39:52;;;;;;;;;;;;;;;;;;7414683;40;1935;-14
2021/05/21 11:45:13;;;;;;;;;;;;;;;;;;7414096;40;949;-14
2021/05/21 11:50:34;;;;;;;;;;;;;;;;;;7414909;40;960;-15
2021/05/21 11:55:55;;;;;;;;;;;;;;;;;;7414399;40;1045;-14
2021/05/21 12:01:16;;;;;;;;;;;;;;;;;;7414552;40;1881;-15
2021/05/21 12:06:39;;;;;;;;;;;;;;;;;;7414733;40;995;-14
2021/05/21 12:12:00;;;;;;;;;;;;;;;;;;7414158;40;968;-14
2021/05/21 12:17:20;;;;;;;;;;;;;;;;;;7414228;40;1005;-14
2021/05/21 12:23:00;;;;;;;;;;;;;;;;;;7413935;40;1931;-15
2021/05/21 12:28:21;;;;;;;;;;;;;;;;;;7413606;40;974;-13
2021/05/21 12:33:42;;;;;;;;;;;;;;;;;;7414293;40;1212;-14
2021/05/21 12:39:07;;;;;;;;;;;;;;;;;;7413837;40;1159;-14
2021/05/21 12:44:28;;;;;;;;;;;;;;;;;;7414236;40;1104;-14
2021/05/21 12:49:52;;;;;;;;;;;;;;;;;;7413831;40;1057;-14
2021/05/21 12:55:13;;;;;;;;;;;;;;;;;;7413947;40;1058;-14
2021/05/21 13:00:38;;;;;;;;;;;;;;;;;;7413857;40;1933;-14
2021/05/21 13:05:59;;;;;;;;;;;;;;;;;;7414046;40;979;-14
2021/05/21 13:11:20;;;;;;;;;;;;;;;;;;7413528;40;932;-14
2021/05/21 13:16:42;;;;;;;;;;;;;;;;;;7413437;40;982;-14
2021/05/21 13:22:17;;;;;;;;;;;;;;;;;;7413194;40;1931;-14
2021/05/21 13:27:38;;;;;;;;;;;;;;;;;;7413343;40;1257;-13
2021/05/21 13:33:00;;;;;;;;;;;;;;;;;;7413217;40;1191;-14
2021/05/21 13:38:24;;;;;;;;;;;;;;;;;;7398344;40;1300;-14
2021/05/21 13:43:45;;;;;;;;;;;;;;;;;;7392410;40;1886;-14
2021/05/21 13:49:05;;;;;;;;;;;;;;;;;;7392600;40;1045;-14
2021/05/21 13:54:26;;;;;;;;;;;;;;;;;;7392531;40;983;-16
2021/05/21 13:59:47;;;;;;;;;;;;;;;;;;7392333;40;1941;-14
2021/05/21 14:05:09;;;;;;;;;;;;;;;;;;7392184;40;996;-14
2021/05/21 14:10:30;;;;;;;;;;;;;;;;;;7395537;40;987;-14
2021/05/21 14:15:51;;;;;;;;;;;;;;;;;;7395467;40;1090;-16
2021/05/21 14:21:12;;;;;;;;;;;;;;;;;;7407466;40;1947;-14
2021/05/21 14:26:33;;;;;;;;;;;;;;;;;;7414031;40;1088;-15
2021/05/21 14:31:56;;;;;;;;;;;;;;;;;;7413363;40;1404;-14
2021/05/21 14:37:20;;;;;;;;;;;;;;;;;;7415257;40;1007;-15
2021/05/21 14:42:41;;;;;;;;;;;;;;;;;;7415759;40;1925;-14
2021/05/21 14:48:02;;;;;;;;;;;;;;;;;;7415854;40;1010;-14
2021/05/21 14:53:22;;;;;;;;;;;;;;;;;;7415620;40;966;-14
2021/05/21 14:58:43;;;;;;;;;;;;;;;;;;7414813;40;1072;-14
2021/05/21 15:04:06;;;;;;;;;;;;;;;;;;7414751;40;1937;-15
2021/05/21 15:09:27;;;;;;;;;;;;;;;;;;7414670;40;1076;-15
2021/05/21 15:14:49;;;;;;;;;;;;;;;;;;7415208;40;1201;-15
2021/05/21 15:25:50;;;;;;;;;;;;;;;;;;7414263;40;1082;-15
2021/05/21 15:31:11;;;;;;;;;;;;;;;;;;7394617;40;1166;-15
2021/05/21 15:36:32;;;;;;;;;;;;;;;;;;7415120;40;1035;-15
2021/05/21 15:47:24;;;;;;;;;;;;;;;;;;7414014;40;1079;-15
2021/05/21 15:53:05;;;;;;;;;;;;;;;;;;7164362;39;9999837;-15
2021/05/21 16:03:46;;;;;;;;;;;;;;;;;;7410856;40;1943;-15
2021/05/21 16:09:07;;;;;;;;;;;;;;;;;;7410616;40;987;-15
2021/05/21 16:14:28;;;;;;;;;;;;;;;;;;7411920;40;994;-15
2021/05/21 16:19:49;;;;;;;;;;;;;;;;;;7411344;40;1182;-15
2021/05/21 16:25:10;;;;;;;;;;;;;;;;;;7411227;40;1045;-15
2021/05/21 16:30:31;;;;;;;;;;;;;;;;;;7409005;40;1342;-15
2021/05/21 16:35:52;;;;;;;;;;;;;;;;;;7410758;40;1223;-14
2021/05/21 16:41:16;;;;;;;;;;;;;;;;;;7408893;40;1886;-15
2021/05/21 16:46:37;;;;;;;;;;;;;;;;;;7402677;40;962;-14
2021/05/21 16:51:57;;;;;;;;;;;;;;;;;;7394141;40;966;-15
2021/05/21 16:57:18;;;;;;;;;;;;;;;;;;7410296;40;1142;-15
2021/05/21 17:02:38;;;;;;;;;;;;;;;;;;7410923;40;1943;-15
2021/05/21 17:07:59;;;;;;;;;;;;;;;;;;7400148;40;2491;-15
2021/05/21 17:13:21;;;;;;;;;;;;;;;;;;7410680;40;993;-13
2021/05/21 17:47:19;;;;;;;;;;;;;;;;;;7392855;40;946;-15
2021/05/21 18:49:31;;;;;;;;;;;;;;;;;;7411424;40;887;-17
2021/05/21 18:54:37;;;;;;;;;;;;;;;;;;7410999;40;1664;-14
2021/05/21 19:05:49;;;;;;;;;;;;;;;;;;7411365;40;984;-17
2021/05/21 19:16:56;;;;;;;;;;;;;;;;;;7410829;40;981;-15
2021/05/21 19:22:16;;;;;;;;;;;;;;;;;;7409978;40;1923;-15
2021/05/21 19:27:39;;;;;;;;;;;;;;;;;;7409858;40;1294;-14
2021/05/21 19:50:31;;;;;;;;;;;;;;;;;;7414743;40;1284;-14
2021/05/21 20:12:11;;;;;;;;;;;;;;;;;;7414490;40;1100;-13
2021/05/21 20:17:36;;;;;;;;;;;;;;;;;;7414295;40;1152;-15
2021/05/21 20:22:58;;;;;;;;;;;;;;;;;;7414092;40;1856;-14
2021/05/21 20:28:29;;;;;;;;;;;;;;;;;;7414263;40;1099;-15
2021/05/21 20:39:39;;;;;;;;;;;;;;;;;;7413769;40;1045;-13
2021/05/21 21:02:24;;;;;;;;;;;;;;;;;;7413618;40;1866;-13
2021/05/21 21:07:40;;;;;;;;;;;;;;;;;;7413611;40;1209;-14
2021/05/21 21:13:13;;;;;;;;;;;;;;;;;;7413389;40;956;-14
2021/05/21 22:14:15;;;;;;;;;;;;;;;;;;7412249;40;1017;-14
2021/05/21 22:25:14;;;;;;;;;;;;;;;;;;7412523;40;1924;-15
2021/05/21 22:30:36;;;;;;;;;;;;;;;;;;7414910;40;1081;-15
2021/05/21 22:35:56;;;;;;;;;;;;;;;;;;7415921;40;1091;-16
2021/05/21 22:41:17;;;;;;;;;;;;;;;;;;7414184;40;2018;-16
2021/05/21 22:46:41;;;;;;;;;;;;;;;;;;7421138;40;944;-15
2021/05/21 22:52:02;;;;;;;;;;;;;;;;;;7415345;40;1023;-17
2021/05/21 22:57:23;;;;;;;;;;;;;;;;;;7415303;40;967;-15
2021/05/21 23:02:44;;;;;;;;;;;;;;;;;;7415249;40;1937;-16
2021/05/21 23:08:05;;;;;;;;;;;;;;;;;;7415274;40;1108;-16
2021/05/21 23:13:25;;;;;;;;;;;;;;;;;;7414310;40;966;-16
2021/05/21 23:18:46;;;;;;;;;;;;;;;;;;7414905;40;1127;-16
2021/05/21 23:24:07;;;;;;;;;;;;;;;;;;7415151;40;1880;-15
2021/05/21 23:29:27;;;;;;;;;;;;;;;;;;7415083;40;990;-15
2021/05/21 23:34:48;;;;;;;;;;;;;;;;;;7415362;40;1077;-15
2021/05/21 23:40:10;;;;;;;;;;;;;;;;;;7414814;40;998;-15
2021/05/21 23:45:31;;;;;;;;;;;;;;;;;;7414682;40;1866;-16
2021/05/21 23:50:52;;;;;;;;;;;;;;;;;;7414738;40;1227;-15
2021/05/21 23:56:12;;;;;;;;;;;;;;;;;;7414487;40;971;-15
